createdAt,value
2018-12-14T00:04:37.851Z,0.90
2018-12-14T00:07:06.165Z,0.90
2018-12-14T00:09:34.503Z,0.90
2018-12-14T00:12:03.343Z,0.80
2018-12-14T00:14:31.744Z,0.90
2018-12-14T00:17:00.136Z,0.80
2018-12-14T00:19:28.476Z,0.80
2018-12-14T00:21:56.775Z,0.80
2018-12-14T00:24:25.075Z,0.70
2018-12-14T00:26:53.406Z,0.70
2018-12-14T00:29:21.738Z,0.70
2018-12-14T00:31:50.104Z,0.70
2018-12-14T00:34:18.404Z,0.70
2018-12-14T00:36:47.278Z,0.80
2018-12-14T00:39:15.582Z,0.80
2018-12-14T00:41:43.904Z,0.80
2018-12-14T00:44:12.304Z,0.80
2018-12-14T00:46:44.783Z,0.80
2018-12-14T00:49:13.507Z,0.80
2018-12-14T00:51:41.925Z,0.80
2018-12-14T00:54:10.246Z,0.80
2018-12-14T00:56:38.540Z,0.80
2018-12-14T00:59:06.839Z,0.80
2018-12-14T01:01:36.423Z,0.80
2018-12-14T01:04:04.710Z,0.80
2018-12-14T01:06:33.180Z,0.80
2018-12-14T01:09:01.602Z,0.80
2018-12-14T01:11:30.008Z,0.80
2018-12-14T01:13:58.538Z,0.70
2018-12-14T01:16:27.283Z,0.70
2018-12-14T01:18:55.592Z,0.70
2018-12-14T01:21:23.879Z,0.70
2018-12-14T01:23:52.172Z,0.70
2018-12-14T01:26:20.493Z,0.70
2018-12-14T01:28:49.337Z,0.70
2018-12-14T01:31:17.708Z,0.70
2018-12-14T01:33:46.021Z,0.70
2018-12-14T01:36:14.332Z,0.70
2018-12-14T01:38:42.817Z,0.70
2018-12-14T01:41:11.431Z,0.70
2018-12-14T01:43:39.712Z,0.70
2018-12-14T01:46:08.023Z,0.70
2018-12-14T01:48:36.409Z,0.70
2018-12-14T01:51:04.722Z,0.70
2018-12-14T01:53:33.131Z,0.70
2018-12-14T01:56:01.431Z,0.70
2018-12-14T01:58:29.752Z,0.70
2018-12-14T02:00:58.498Z,0.70
2018-12-14T02:03:27.463Z,0.60
2018-12-14T02:05:55.758Z,0.70
2018-12-14T02:08:24.077Z,0.70
2018-12-14T02:10:52.380Z,0.70
2018-12-14T02:13:21.388Z,0.70
2018-12-14T02:15:49.700Z,0.60
2018-12-14T02:18:18.008Z,0.60
2018-12-14T02:20:46.294Z,0.60
2018-12-14T02:23:14.721Z,0.60
2018-12-14T02:25:43.861Z,0.60
2018-12-14T02:28:12.184Z,0.50
2018-12-14T02:30:43.928Z,0.60
2018-12-14T02:33:12.458Z,0.60
2018-12-14T02:35:40.892Z,0.50
2018-12-14T02:38:09.174Z,0.50
2018-12-14T02:40:37.465Z,0.50
2018-12-14T02:43:06.105Z,0.50
2018-12-14T02:45:34.495Z,0.50
2018-12-14T02:48:02.914Z,0.50
2018-12-14T02:50:31.304Z,0.50
2018-12-14T02:52:59.633Z,0.50
2018-12-14T02:55:28.002Z,0.40
2018-12-14T02:57:56.526Z,0.50
2018-12-14T03:00:25.112Z,0.50
2018-12-14T03:02:53.377Z,0.50
2018-12-14T03:05:21.811Z,0.40
2018-12-14T03:07:50.260Z,0.40
2018-12-14T03:10:19.039Z,0.40
2018-12-14T03:12:47.481Z,0.50
2018-12-14T03:15:15.814Z,0.50
2018-12-14T03:17:44.172Z,0.50
2018-12-14T03:20:12.792Z,0.50
2018-12-14T03:22:41.130Z,0.50
2018-12-14T03:25:09.819Z,0.50
2018-12-14T03:27:38.148Z,0.40
2018-12-14T03:30:08.361Z,0.40
2018-12-14T03:32:36.656Z,0.50
2018-12-14T03:35:05.584Z,0.40
2018-12-14T03:37:33.875Z,0.50
2018-12-14T03:40:02.320Z,0.50
2018-12-14T03:42:34.137Z,0.50
2018-12-14T03:45:00.997Z,0.50
2018-12-14T03:47:29.799Z,0.50
2018-12-14T03:49:58.084Z,0.50
2018-12-14T03:52:26.347Z,0.50
2018-12-14T03:54:54.799Z,0.50
2018-12-14T03:57:23.053Z,0.50
2018-12-14T03:59:51.461Z,0.50
2018-12-14T04:02:19.808Z,0.50
2018-12-14T04:04:48.163Z,0.50
2018-12-14T04:07:16.545Z,0.50
2018-12-14T04:09:44.825Z,0.50
2018-12-14T04:12:13.255Z,0.50
2018-12-14T04:14:41.608Z,0.40
2018-12-14T04:17:10.101Z,0.50
2018-12-14T04:19:38.396Z,0.40
2018-12-14T04:22:06.786Z,0.50
2018-12-14T04:24:35.048Z,0.50
2018-12-14T04:27:03.387Z,0.50
2018-12-14T04:29:31.906Z,0.50
2018-12-14T04:32:00.383Z,0.50
2018-12-14T04:34:28.682Z,0.50
2018-12-14T04:36:56.994Z,0.60
2018-12-14T04:39:25.291Z,0.60
2018-12-14T04:41:53.648Z,0.60
2018-12-14T04:44:21.996Z,0.50
2018-12-14T04:46:50.913Z,0.60
2018-12-14T04:49:19.349Z,0.50
2018-12-14T04:51:47.953Z,0.50
2018-12-14T04:54:16.252Z,0.50
2018-12-14T04:56:44.693Z,0.50
2018-12-14T04:59:13.093Z,0.50
2018-12-14T05:01:41.388Z,0.50
2018-12-14T05:04:09.874Z,0.60
2018-12-14T05:06:38.147Z,0.50
2018-12-14T05:09:06.607Z,0.50
2018-12-14T05:11:34.972Z,0.50
2018-12-14T05:14:03.289Z,0.50
2018-12-14T05:16:32.355Z,0.50
2018-12-14T05:19:00.707Z,0.50
2018-12-14T05:21:29.160Z,0.60
2018-12-14T05:23:57.442Z,0.60
2018-12-14T05:26:25.753Z,0.60
2018-12-14T05:28:54.049Z,0.60
2018-12-14T05:31:22.340Z,0.60
2018-12-14T05:33:52.708Z,0.60
2018-12-14T05:36:21.991Z,0.60
2018-12-14T05:38:50.268Z,0.60
2018-12-14T05:41:18.600Z,0.60
2018-12-14T05:43:48.604Z,0.60
2018-12-14T05:46:16.964Z,0.60
2018-12-14T05:48:45.392Z,0.60
2018-12-14T05:51:14.024Z,0.60
2018-12-14T05:53:42.327Z,0.60
2018-12-14T05:56:10.765Z,0.60
2018-12-14T05:58:39.334Z,0.60
2018-12-14T06:01:07.638Z,0.60
2018-12-14T06:03:36.051Z,0.60
2018-12-14T06:06:04.717Z,0.60
2018-12-14T06:08:33.183Z,0.60
2018-12-14T06:11:01.704Z,0.60
2018-12-14T06:13:30.000Z,0.60
2018-12-14T06:15:58.386Z,0.60
2018-12-14T06:18:26.814Z,0.60
2018-12-14T06:20:55.128Z,0.60
2018-12-14T06:23:23.442Z,0.60
2018-12-14T06:25:51.769Z,0.60
2018-12-14T06:28:20.144Z,0.60
2018-12-14T06:30:49.752Z,0.60
2018-12-14T06:33:18.332Z,0.50
2018-12-14T06:35:46.694Z,0.50
2018-12-14T06:38:15.249Z,0.50
2018-12-14T06:40:43.595Z,0.50
2018-12-14T06:43:15.507Z,0.50
2018-12-14T06:45:42.527Z,0.50
2018-12-14T06:48:10.904Z,0.50
2018-12-14T06:50:39.374Z,0.50
2018-12-14T06:53:08.016Z,0.50
2018-12-14T06:55:36.303Z,0.50
2018-12-14T06:58:04.688Z,0.50
2018-12-14T07:00:32.985Z,0.50
2018-12-14T07:03:01.364Z,0.40
2018-12-14T07:05:30.125Z,0.50
2018-12-14T07:07:58.422Z,0.50
2018-12-14T07:10:26.719Z,0.50
2018-12-14T07:12:55.076Z,0.60
2018-12-14T07:15:23.459Z,0.50
2018-12-14T07:17:51.855Z,0.50
2018-12-14T07:20:20.188Z,0.50
2018-12-14T07:22:48.499Z,0.50
2018-12-14T07:25:16.802Z,0.60
2018-12-14T07:27:45.064Z,0.60
2018-12-14T07:30:13.515Z,0.60
2018-12-14T07:32:41.903Z,0.60
2018-12-14T07:35:10.215Z,0.60
2018-12-14T07:37:38.510Z,0.60
2018-12-14T07:40:07.211Z,0.60
2018-12-14T07:42:35.500Z,0.60
2018-12-14T07:45:04.401Z,0.60
2018-12-14T07:47:32.676Z,0.60
2018-12-14T07:50:00.939Z,0.60
2018-12-14T07:52:29.429Z,0.50
2018-12-14T07:54:57.721Z,0.60
2018-12-14T07:57:26.144Z,0.60
2018-12-14T07:59:54.491Z,0.60
2018-12-14T08:02:23.268Z,0.60
2018-12-14T08:04:52.065Z,0.60
2018-12-14T08:07:20.364Z,0.60
2018-12-14T08:09:48.680Z,0.60
2018-12-14T08:12:16.991Z,0.60
2018-12-14T08:14:45.473Z,0.60
2018-12-14T08:17:13.840Z,0.70
2018-12-14T08:19:42.191Z,0.70
2018-12-14T08:22:10.530Z,0.70
2018-12-14T08:24:38.867Z,0.70
2018-12-14T08:27:07.471Z,0.70
2018-12-14T08:29:35.764Z,0.60
2018-12-14T08:32:04.117Z,0.60
2018-12-14T08:34:32.423Z,0.70
2018-12-14T08:37:00.866Z,0.60
2018-12-14T08:39:29.213Z,0.70
2018-12-14T08:41:57.518Z,0.70
2018-12-14T08:44:25.834Z,0.70
2018-12-14T08:46:54.119Z,0.70
2018-12-14T08:49:22.534Z,0.70
2018-12-14T08:51:51.028Z,0.70
2018-12-14T08:54:19.435Z,0.70
2018-12-14T08:56:47.695Z,0.70
2018-12-14T08:59:16.252Z,0.70
2018-12-14T09:01:44.746Z,0.70
2018-12-14T09:04:14.891Z,0.70
2018-12-14T09:06:43.260Z,0.80
2018-12-14T09:09:11.838Z,0.80
2018-12-14T09:11:40.385Z,0.80
2018-12-14T09:14:08.811Z,0.80
2018-12-14T09:16:37.114Z,0.80
2018-12-14T09:19:05.484Z,0.80
2018-12-14T09:21:34.032Z,0.80
2018-12-14T09:24:02.316Z,0.80
2018-12-14T09:26:30.583Z,0.80
2018-12-14T09:28:59.372Z,0.80
2018-12-14T09:31:28.253Z,0.90
2018-12-14T09:33:56.598Z,0.90
2018-12-14T09:36:25.016Z,0.90
2018-12-14T09:38:53.346Z,0.80
2018-12-14T09:41:21.638Z,0.80
2018-12-14T09:43:54.367Z,0.80
2018-12-14T09:46:20.405Z,0.90
2018-12-14T09:48:48.718Z,0.80
2018-12-14T09:51:17.016Z,0.90
2018-12-14T09:53:45.321Z,0.90
2018-12-14T09:56:13.897Z,0.80
2018-12-14T09:58:42.244Z,0.80
2018-12-14T10:01:10.686Z,0.80
2018-12-14T10:03:39.101Z,0.90
2018-12-14T10:06:07.402Z,0.90
2018-12-14T10:08:35.937Z,0.90
2018-12-14T10:11:04.318Z,1.00
2018-12-14T10:13:32.678Z,0.90
2018-12-14T10:16:01.351Z,0.90
2018-12-14T10:18:29.726Z,0.90
2018-12-14T10:20:58.038Z,0.90
2018-12-14T10:23:26.359Z,0.80
2018-12-14T10:25:54.621Z,0.80
2018-12-14T10:28:22.959Z,0.80
2018-12-14T10:30:51.521Z,0.80
2018-12-14T10:33:19.979Z,0.80
2018-12-14T10:35:48.300Z,0.80
2018-12-14T10:38:16.715Z,0.80
2018-12-14T10:40:45.370Z,0.80
2018-12-14T10:43:13.696Z,0.90
2018-12-14T10:45:42.311Z,0.90
2018-12-14T10:48:10.736Z,0.90
2018-12-14T10:50:39.913Z,0.90
2018-12-14T10:53:12.170Z,0.90
2018-12-14T10:55:40.992Z,0.90
2018-12-14T10:58:09.678Z,1.00
2018-12-14T11:00:43.513Z,0.90
2018-12-14T11:03:11.777Z,0.90
2018-12-14T11:05:40.360Z,1.00
2018-12-14T11:08:08.618Z,1.00
2018-12-14T11:10:36.927Z,1.00
2018-12-14T11:13:05.216Z,1.00
2018-12-14T11:15:33.517Z,1.00
2018-12-14T11:18:01.801Z,1.00
2018-12-14T11:20:30.352Z,1.00
2018-12-14T11:22:58.684Z,1.00
2018-12-14T11:25:26.991Z,1.10
2018-12-14T11:27:55.251Z,1.10
2018-12-14T11:30:23.548Z,1.10
2018-12-14T11:32:51.926Z,1.00
2018-12-14T11:35:20.268Z,0.90
2018-12-14T11:37:48.560Z,1.00
2018-12-14T11:40:16.850Z,1.00
2018-12-14T11:42:45.137Z,1.00
2018-12-14T11:45:13.545Z,1.00
2018-12-14T11:47:41.827Z,1.10
2018-12-14T11:50:11.641Z,1.00
2018-12-14T11:52:40.019Z,1.00
2018-12-14T11:55:09.322Z,1.00
2018-12-14T11:57:38.034Z,1.00
2018-12-14T12:00:10.968Z,1.00
2018-12-14T12:02:43.115Z,1.00
2018-12-14T12:05:10.016Z,1.00
2018-12-14T12:07:39.319Z,0.90
2018-12-14T12:10:09.501Z,0.90
2018-12-14T12:12:38.252Z,0.90
2018-12-14T12:15:07.353Z,0.80
2018-12-14T12:17:37.278Z,0.80
2018-12-14T12:20:06.068Z,0.90
2018-12-14T12:22:34.375Z,0.80
2018-12-14T12:25:02.703Z,0.80
2018-12-14T12:27:30.976Z,0.90
2018-12-14T12:29:59.280Z,0.90
2018-12-14T12:32:27.678Z,0.90
2018-12-14T12:34:55.996Z,0.90
2018-12-14T12:37:24.251Z,0.90
2018-12-14T12:39:52.618Z,0.90
2018-12-14T12:42:21.303Z,0.80
2018-12-14T12:44:49.652Z,0.80
2018-12-14T12:47:17.921Z,0.80
2018-12-14T12:49:46.257Z,0.80
2018-12-14T12:52:14.517Z,0.80
2018-12-14T12:54:42.813Z,0.80
2018-12-14T12:57:11.145Z,0.80
2018-12-14T12:59:39.726Z,0.80
2018-12-14T13:02:08.217Z,0.80
2018-12-14T13:04:36.810Z,0.80
2018-12-14T13:07:05.223Z,0.90
2018-12-14T13:09:33.576Z,0.80
2018-12-14T13:12:01.947Z,0.80
2018-12-14T13:14:30.280Z,0.90
2018-12-14T13:16:58.617Z,0.90
2018-12-14T13:19:26.904Z,0.90
2018-12-14T13:21:55.238Z,0.90
2018-12-14T13:24:23.504Z,0.90
2018-12-14T13:26:51.821Z,0.90
2018-12-14T13:29:20.153Z,0.90
2018-12-14T13:31:48.527Z,0.80
2018-12-14T13:34:16.869Z,0.80
2018-12-14T13:36:45.195Z,0.80
2018-12-14T13:39:13.502Z,0.80
2018-12-14T13:41:42.423Z,0.80
2018-12-14T13:44:10.802Z,0.80
2018-12-14T13:46:39.133Z,0.80
2018-12-14T13:49:07.518Z,0.80
2018-12-14T13:51:35.841Z,0.80
2018-12-14T13:54:04.143Z,0.80
2018-12-14T13:56:32.516Z,0.80
2018-12-14T13:59:01.242Z,0.80
2018-12-14T14:01:30.248Z,0.70
2018-12-14T14:03:59.113Z,0.70
2018-12-14T14:06:27.400Z,0.80
2018-12-14T14:08:55.779Z,0.80
2018-12-14T14:11:24.469Z,0.80
2018-12-14T14:13:52.813Z,0.80
2018-12-14T14:16:21.139Z,0.80
2018-12-14T14:18:49.405Z,0.80
2018-12-14T14:21:17.739Z,0.70
2018-12-14T14:23:46.008Z,0.70
2018-12-14T14:26:14.457Z,0.70
2018-12-14T14:28:42.814Z,0.70
2018-12-14T14:31:11.082Z,0.60
2018-12-14T14:33:39.515Z,0.60
2018-12-14T14:36:07.841Z,0.70
2018-12-14T14:38:36.145Z,0.60
2018-12-14T14:41:04.577Z,0.60
2018-12-14T14:43:32.874Z,0.60
2018-12-14T14:46:01.212Z,0.60
2018-12-14T14:48:29.507Z,0.60
2018-12-14T14:50:57.817Z,0.60
2018-12-14T14:53:26.087Z,0.60
2018-12-14T14:55:54.385Z,0.60
2018-12-14T14:58:22.679Z,0.60
2018-12-14T15:00:52.379Z,0.50
2018-12-14T15:03:22.250Z,0.60
2018-12-14T15:05:50.600Z,0.60
2018-12-14T15:08:18.939Z,0.50
2018-12-14T15:10:47.238Z,0.50
2018-12-14T15:13:15.555Z,0.50
2018-12-14T15:15:43.884Z,0.50
2018-12-14T15:18:12.200Z,0.50
2018-12-14T15:20:40.475Z,0.50
2018-12-14T15:23:08.773Z,0.40
2018-12-14T15:25:37.317Z,0.30
2018-12-14T15:28:05.584Z,0.30
2018-12-14T15:30:33.875Z,0.40
2018-12-14T15:33:02.538Z,0.30
2018-12-14T15:35:30.836Z,0.30
2018-12-14T15:37:59.636Z,0.30
2018-12-14T15:40:28.207Z,0.30
2018-12-14T15:42:56.804Z,0.30
2018-12-14T15:45:25.125Z,0.30
2018-12-14T15:47:53.588Z,0.30
2018-12-14T15:50:21.908Z,0.30
2018-12-14T15:52:50.204Z,0.30
2018-12-14T15:55:18.516Z,0.30
2018-12-14T15:57:46.783Z,0.30
2018-12-14T16:00:16.684Z,0.30
2018-12-14T16:02:44.977Z,0.20
2018-12-14T16:05:13.477Z,0.20
2018-12-14T16:07:41.777Z,0.30
2018-12-14T16:10:10.109Z,0.30
2018-12-14T16:12:38.380Z,0.30
2018-12-14T16:15:07.924Z,0.30
2018-12-14T16:17:36.697Z,0.30
2018-12-14T16:20:06.164Z,0.30
2018-12-14T16:22:34.709Z,0.30
2018-12-14T16:25:03.108Z,0.20
2018-12-14T16:27:31.454Z,0.20
2018-12-14T16:29:59.708Z,0.20
2018-12-14T16:32:27.998Z,0.20
2018-12-14T16:34:56.271Z,0.20
2018-12-14T16:37:25.121Z,0.20
2018-12-14T16:39:53.405Z,0.10
2018-12-14T16:42:21.771Z,0.10
2018-12-14T16:44:50.048Z,0.10
2018-12-14T16:47:18.330Z,0.10
2018-12-14T16:49:46.778Z,0.10
2018-12-14T16:52:15.196Z,0.10
2018-12-14T16:54:43.596Z,0.10
2018-12-14T16:57:12.265Z,0.10
2018-12-14T16:59:40.575Z,0.00
2018-12-14T17:02:08.907Z,0.00
2018-12-14T17:04:37.730Z,0.10
2018-12-14T17:07:06.084Z,0.10
2018-12-14T17:09:34.343Z,0.00
2018-12-14T17:12:02.734Z,0.10
2018-12-14T17:14:31.669Z,0.10
2018-12-14T17:17:00.628Z,0.10
2018-12-14T17:19:28.920Z,0.10
2018-12-14T17:21:57.179Z,0.10
2018-12-14T17:24:25.455Z,0.10
2018-12-14T17:26:53.930Z,0.00
2018-12-14T17:29:22.487Z,0.00
2018-12-14T17:31:50.764Z,0.00
2018-12-14T17:34:19.025Z,0.00
2018-12-14T17:36:47.280Z,0.10
2018-12-14T17:39:15.558Z,0.10
2018-12-14T17:41:43.951Z,0.10
2018-12-14T17:44:12.216Z,0.10
2018-12-14T17:46:40.805Z,0.10
2018-12-14T17:49:09.102Z,0.00
2018-12-14T17:51:37.531Z,0.00
2018-12-14T17:54:05.809Z,0.00
2018-12-14T17:56:34.116Z,0.00
2018-12-14T17:59:03.789Z,0.00
2018-12-14T18:01:32.133Z,0.00
2018-12-14T18:04:00.412Z,0.00
2018-12-14T18:06:29.018Z,0.00
2018-12-14T18:08:57.425Z,0.00
2018-12-14T18:11:26.401Z,0.00
2018-12-14T18:13:54.803Z,0.00
2018-12-14T18:16:23.787Z,0.00
2018-12-14T18:18:52.093Z,0.10
2018-12-14T18:21:20.371Z,0.00
2018-12-14T18:23:48.666Z,0.00
2018-12-14T18:26:16.966Z,0.00
2018-12-14T18:28:45.212Z,0.00
2018-12-14T18:31:13.658Z,0.10
2018-12-14T18:33:41.947Z,0.00
2018-12-14T18:36:10.286Z,0.00
2018-12-14T18:38:38.620Z,0.00
2018-12-14T18:41:07.105Z,0.00
2018-12-14T18:43:35.624Z,0.00
2018-12-14T18:46:04.251Z,0.00
2018-12-14T18:48:32.776Z,0.00
2018-12-14T18:51:01.185Z,0.00
2018-12-14T18:53:29.549Z,0.00
2018-12-14T18:55:58.086Z,-0.10
2018-12-14T18:58:26.523Z,-0.10
2018-12-14T19:00:54.981Z,-0.10
2018-12-14T19:03:23.319Z,0.00
2018-12-14T19:05:51.828Z,0.00
2018-12-14T19:08:20.307Z,0.00
2018-12-14T19:10:48.699Z,0.00
2018-12-14T19:13:17.244Z,0.00
2018-12-14T19:15:45.650Z,0.00
2018-12-14T19:18:13.961Z,0.00
2018-12-14T19:20:46.982Z,0.00
2018-12-14T19:23:19.669Z,0.00
2018-12-14T19:25:46.295Z,0.00
2018-12-14T19:28:14.597Z,0.10
2018-12-14T19:30:42.910Z,0.00
2018-12-14T19:33:11.229Z,0.00
2018-12-14T19:35:39.520Z,0.00
2018-12-14T19:38:08.649Z,0.00
2018-12-14T19:40:37.861Z,0.00
2018-12-14T19:43:06.195Z,0.10
2018-12-14T19:45:34.464Z,0.10
2018-12-14T19:48:02.749Z,0.10
2018-12-14T19:50:31.348Z,0.10
2018-12-14T19:53:00.071Z,0.00
2018-12-14T19:55:28.343Z,0.10
2018-12-14T19:57:56.658Z,0.00
2018-12-14T20:00:24.976Z,0.10
2018-12-14T20:02:53.320Z,0.10
2018-12-14T20:05:21.630Z,0.10
2018-12-14T20:07:49.963Z,0.10
2018-12-14T20:10:18.258Z,0.10
2018-12-14T20:12:46.547Z,0.10
2018-12-14T20:15:14.912Z,0.20
2018-12-14T20:17:43.216Z,0.20
2018-12-14T20:20:11.613Z,0.20
2018-12-14T20:22:40.061Z,0.20
2018-12-14T20:25:08.371Z,0.10
2018-12-14T20:27:36.895Z,0.20
2018-12-14T20:30:07.520Z,0.20
2018-12-14T20:32:35.868Z,0.10
2018-12-14T20:35:04.874Z,0.10
2018-12-14T20:37:33.295Z,0.20
2018-12-14T20:40:01.572Z,0.20
2018-12-14T20:42:29.855Z,0.20
2018-12-14T20:44:58.209Z,0.20
2018-12-14T20:47:26.647Z,0.20
2018-12-14T20:49:54.940Z,0.20
2018-12-14T20:52:23.212Z,0.20
2018-12-14T20:54:51.498Z,0.10
2018-12-14T20:57:19.887Z,0.20
2018-12-14T20:59:48.170Z,0.10
2018-12-14T21:02:16.487Z,0.10
2018-12-14T21:04:44.820Z,0.20
2018-12-14T21:07:13.124Z,0.10
2018-12-14T21:09:41.434Z,0.10
2018-12-14T21:12:09.727Z,0.10
2018-12-14T21:14:38.820Z,0.10
2018-12-14T21:17:07.160Z,0.10
2018-12-14T21:19:35.479Z,0.10
2018-12-14T21:22:03.896Z,0.10
2018-12-14T21:27:13.504Z,0.10
2018-12-14T21:29:41.878Z,0.20
2018-12-14T21:32:10.187Z,0.20
2018-12-14T21:34:38.586Z,0.20
2018-12-14T21:37:06.867Z,0.20
2018-12-14T21:39:35.179Z,0.20
2018-12-14T21:42:03.505Z,0.20
2018-12-14T21:44:32.078Z,0.20
2018-12-14T21:47:00.458Z,0.30
2018-12-14T21:49:28.752Z,0.30
2018-12-14T21:51:57.123Z,0.30
2018-12-14T21:54:25.426Z,0.30
2018-12-14T21:56:53.787Z,0.30
2018-12-14T21:59:22.143Z,0.20
2018-12-14T22:01:50.437Z,0.20
2018-12-14T22:04:18.709Z,0.20
2018-12-14T22:06:47.408Z,0.30
2018-12-14T22:09:15.821Z,0.20
2018-12-14T22:11:44.140Z,0.30
2018-12-14T22:14:13.072Z,0.20
2018-12-14T22:16:41.437Z,0.20
2018-12-14T22:19:09.752Z,0.20
2018-12-14T22:21:38.139Z,0.20
2018-12-14T22:24:06.423Z,0.20
2018-12-14T22:26:34.802Z,0.20
2018-12-14T22:29:03.174Z,0.20
2018-12-14T22:31:31.500Z,0.20
2018-12-14T22:33:59.972Z,0.20
2018-12-14T22:36:28.238Z,0.20
2018-12-14T22:38:56.987Z,0.10
2018-12-14T22:41:25.271Z,0.10
2018-12-14T22:43:53.570Z,0.10
2018-12-14T22:46:21.932Z,0.10
2018-12-14T22:48:50.294Z,0.10
2018-12-14T22:51:18.556Z,0.10
2018-12-14T22:53:46.855Z,0.10
2018-12-14T22:56:15.127Z,0.10
2018-12-14T22:58:43.411Z,0.20
2018-12-14T23:01:11.684Z,0.10
2018-12-14T23:03:39.964Z,0.10
2018-12-14T23:06:08.409Z,0.10
2018-12-14T23:08:36.745Z,0.10
2018-12-14T23:11:05.064Z,0.10
2018-12-14T23:13:33.385Z,0.10
2018-12-14T23:16:01.742Z,0.10
2018-12-14T23:18:30.088Z,0.10
2018-12-14T23:20:58.385Z,0.10
2018-12-14T23:23:26.707Z,0.10
2018-12-14T23:25:55.060Z,0.10
2018-12-14T23:28:23.500Z,0.10
2018-12-14T23:30:51.805Z,0.00
2018-12-14T23:33:20.157Z,0.10
2018-12-14T23:35:48.485Z,0.10
2018-12-14T23:38:16.841Z,0.00
2018-12-14T23:40:45.165Z,0.00
2018-12-14T23:43:13.448Z,0.00
2018-12-14T23:45:41.755Z,0.00
2018-12-14T23:48:10.039Z,0.10
2018-12-14T23:50:38.363Z,0.00
2018-12-14T23:53:06.839Z,0.00
2018-12-14T23:55:35.178Z,0.00
2018-12-14T23:58:03.673Z,0.00
